createdAt,value
2022-12-29T00:01:53.685Z,17.48
2022-12-29T00:04:56.461Z,17.85
2022-12-29T00:07:59.319Z,15.80
2022-12-29T00:11:02.483Z,16.20
2022-12-29T00:14:26.172Z,16.13
2022-12-29T00:17:29.199Z,17.12
2022-12-29T00:20:53.880Z,18.30
2022-12-29T00:24:28.555Z,17.50
2022-12-29T00:27:52.962Z,19.07
2022-12-29T00:31:18.775Z,16.40
2022-12-29T00:34:43.955Z,17.77
2022-12-29T00:38:07.290Z,16.67
2022-12-29T00:41:28.545Z,17.20
2022-12-29T00:44:34.646Z,16.23
2022-12-29T00:47:37.373Z,19.40
2022-12-29T00:50:40.222Z,15.15
2022-12-29T00:53:44.397Z,17.60
2022-12-29T00:56:48.960Z,17.40
2022-12-29T00:59:52.441Z,15.10
2022-12-29T01:02:55.591Z,14.73
2022-12-29T01:06:02.085Z,18.23
2022-12-29T01:09:24.408Z,17.15
2022-12-29T01:12:42.322Z,16.80
2022-12-29T01:15:51.426Z,16.57
2022-12-29T01:18:54.289Z,16.83
2022-12-29T01:21:57.286Z,18.62
2022-12-29T01:25:00.019Z,19.35
2022-12-29T01:28:02.827Z,25.08
2022-12-29T01:31:05.588Z,20.67
2022-12-29T01:34:08.491Z,20.33
2022-12-29T01:37:12.112Z,19.55
2022-12-29T01:40:15.000Z,17.75
2022-12-29T01:43:17.690Z,18.75
2022-12-29T01:46:26.498Z,17.57
2022-12-29T01:49:30.530Z,15.90
2022-12-29T01:52:39.907Z,19.00
2022-12-29T01:55:53.040Z,19.12
2022-12-29T01:59:03.133Z,16.62
2022-12-29T02:02:06.224Z,18.23
2022-12-29T02:05:21.391Z,16.47
2022-12-29T02:08:27.112Z,18.15
2022-12-29T02:11:30.907Z,20.65
2022-12-29T02:14:34.488Z,17.08
2022-12-29T02:17:46.640Z,16.30
2022-12-29T02:21:26.443Z,16.93
2022-12-29T02:24:56.842Z,17.27
2022-12-29T02:28:21.442Z,15.52
2022-12-29T02:31:30.082Z,17.62
2022-12-29T02:35:06.851Z,17.07
2022-12-29T02:38:16.231Z,15.77
2022-12-29T02:41:33.780Z,17.95
2022-12-29T02:45:03.390Z,16.37
2022-12-29T02:48:35.739Z,15.45
2022-12-29T02:52:04.855Z,14.93
2022-12-29T02:55:08.299Z,16.87
2022-12-29T02:58:23.039Z,17.80
2022-12-29T03:02:04.192Z,15.38
2022-12-29T03:05:31.503Z,19.15
2022-12-29T03:08:57.465Z,17.90
2022-12-29T03:12:09.409Z,19.00
2022-12-29T03:15:36.171Z,16.73
2022-12-29T03:18:53.375Z,19.00
2022-12-29T03:22:17.734Z,20.30
2022-12-29T03:25:30.901Z,17.70
2022-12-29T03:28:37.841Z,19.07
2022-12-29T03:31:41.992Z,17.77
2022-12-29T03:34:44.817Z,18.98
2022-12-29T03:38:01.232Z,16.40
2022-12-29T03:41:07.197Z,19.53
2022-12-29T03:44:10.416Z,20.07
2022-12-29T03:47:15.706Z,18.70
2022-12-29T03:50:18.533Z,21.77
2022-12-29T03:53:21.296Z,17.55
2022-12-29T03:56:24.136Z,19.60
2022-12-29T03:59:30.066Z,18.50
2022-12-29T04:02:33.180Z,18.30
2022-12-29T04:05:40.082Z,22.35
2022-12-29T04:08:42.950Z,17.62
2022-12-29T04:11:46.092Z,23.17
2022-12-29T04:14:48.884Z,23.57
2022-12-29T04:17:51.681Z,18.20
2022-12-29T04:21:06.726Z,26.70
2022-12-29T04:24:10.480Z,24.87
2022-12-29T04:27:13.175Z,22.03
2022-12-29T04:30:16.169Z,20.60
2022-12-29T04:33:24.310Z,22.98
2022-12-29T04:36:30.057Z,19.37
2022-12-29T04:39:36.580Z,21.73
2022-12-29T04:42:39.373Z,20.83
2022-12-29T04:45:46.442Z,21.13
2022-12-29T04:48:49.232Z,21.17
2022-12-29T04:51:52.556Z,21.02
2022-12-29T04:54:56.630Z,22.75
2022-12-29T04:57:59.401Z,24.33
2022-12-29T05:01:02.359Z,21.30
2022-12-29T05:04:08.227Z,18.02
2022-12-29T05:07:13.984Z,22.35
2022-12-29T05:10:17.233Z,21.23
2022-12-29T05:13:21.202Z,21.40
2022-12-29T05:16:24.100Z,20.13
2022-12-29T05:19:27.126Z,21.50
2022-12-29T05:22:29.978Z,25.50
2022-12-29T05:25:32.711Z,20.40
2022-12-29T05:28:38.291Z,23.33
2022-12-29T05:31:44.460Z,22.53
2022-12-29T05:34:47.527Z,25.62
2022-12-29T05:37:50.380Z,25.40
2022-12-29T05:40:53.202Z,24.48
2022-12-29T05:43:55.987Z,24.90
2022-12-29T05:46:58.668Z,25.17
2022-12-29T05:50:02.228Z,22.92
2022-12-29T05:53:04.913Z,23.55
2022-12-29T05:56:08.011Z,24.12
2022-12-29T05:59:10.783Z,20.33
2022-12-29T06:02:16.465Z,23.43
2022-12-29T06:05:20.179Z,20.88
2022-12-29T06:08:23.018Z,23.08
2022-12-29T06:11:25.941Z,21.98
2022-12-29T06:14:28.711Z,23.03
2022-12-29T06:17:31.525Z,25.13
2022-12-29T06:20:34.392Z,27.27
2022-12-29T06:23:37.210Z,23.87
2022-12-29T06:26:41.343Z,26.12
2022-12-29T06:29:44.204Z,28.03
2022-12-29T06:32:47.295Z,27.80
2022-12-29T06:35:50.136Z,34.08
2022-12-29T06:38:53.844Z,28.38
2022-12-29T06:41:56.652Z,26.30
2022-12-29T06:45:01.975Z,27.33
2022-12-29T06:48:04.982Z,25.83
2022-12-29T06:51:07.848Z,25.27
2022-12-29T06:54:10.916Z,28.90
2022-12-29T06:57:13.830Z,27.00
2022-12-29T07:00:22.683Z,27.97
2022-12-29T07:03:26.646Z,27.63
2022-12-29T07:06:29.651Z,30.90
2022-12-29T07:09:32.579Z,27.62
2022-12-29T07:12:35.526Z,30.00
2022-12-29T07:15:38.922Z,29.03
2022-12-29T07:18:41.706Z,30.00
2022-12-29T07:21:47.623Z,29.67
2022-12-29T07:24:50.482Z,28.40
2022-12-29T07:27:53.325Z,26.77
2022-12-29T07:30:56.199Z,30.63
2022-12-29T07:33:58.994Z,30.37
2022-12-29T07:37:01.713Z,31.20
2022-12-29T07:40:05.728Z,31.48
2022-12-29T07:43:10.436Z,33.38
2022-12-29T07:46:54.025Z,30.00
2022-12-29T07:49:36.590Z,30.60
2022-12-29T07:52:39.779Z,35.25
2022-12-29T07:55:42.590Z,33.65
2022-12-29T07:58:45.398Z,35.15
2022-12-29T08:01:48.797Z,32.80
2022-12-29T08:04:51.744Z,33.47
2022-12-29T08:07:54.641Z,33.92
2022-12-29T08:10:57.579Z,33.08
2022-12-29T08:14:01.021Z,33.65
2022-12-29T08:17:04.485Z,31.90
2022-12-29T08:20:08.138Z,33.60
2022-12-29T08:23:13.944Z,32.72
2022-12-29T08:26:17.230Z,29.95
2022-12-29T08:29:21.139Z,32.50
2022-12-29T08:32:28.402Z,32.87
2022-12-29T08:35:31.224Z,29.97
2022-12-29T08:38:35.427Z,28.23
2022-12-29T08:41:38.612Z,37.70
2022-12-29T08:44:41.639Z,36.08
2022-12-29T08:47:44.522Z,37.83
2022-12-29T08:50:48.063Z,33.70
2022-12-29T08:53:52.849Z,29.08
2022-12-29T08:56:56.737Z,35.65
2022-12-29T08:59:59.584Z,31.40
2022-12-29T09:03:02.850Z,28.90
2022-12-29T09:06:05.864Z,28.37
2022-12-29T09:09:09.390Z,31.50
2022-12-29T09:12:12.306Z,31.12
2022-12-29T09:15:16.734Z,30.00
2022-12-29T09:18:21.694Z,24.63
2022-12-29T09:21:24.691Z,26.97
2022-12-29T09:24:27.685Z,26.60
2022-12-29T09:27:31.295Z,27.80
2022-12-29T09:30:34.105Z,30.35
2022-12-29T09:33:37.198Z,29.07
2022-12-29T09:36:40.166Z,24.60
2022-12-29T09:39:43.038Z,23.45
2022-12-29T09:42:57.434Z,23.27
2022-12-29T09:46:20.738Z,23.62
2022-12-29T09:49:31.571Z,24.57
2022-12-29T09:52:44.563Z,25.00
2022-12-29T09:55:51.100Z,25.05
2022-12-29T09:59:14.605Z,25.55
2022-12-29T10:02:30.949Z,23.95
2022-12-29T10:05:47.740Z,24.23
2022-12-29T10:09:02.615Z,24.50
2022-12-29T10:12:33.091Z,21.15
2022-12-29T10:15:51.210Z,22.60
2022-12-29T10:19:04.632Z,22.25
2022-12-29T10:22:26.240Z,25.27
2022-12-29T10:25:33.206Z,24.10
2022-12-29T10:28:41.691Z,22.90
2022-12-29T10:32:00.475Z,25.37
2022-12-29T10:35:25.068Z,25.35
2022-12-29T10:39:04.624Z,23.63
2022-12-29T10:42:30.413Z,20.00
2022-12-29T10:45:35.313Z,21.85
2022-12-29T10:48:38.070Z,23.42
2022-12-29T10:51:43.502Z,23.77
2022-12-29T10:55:05.054Z,22.00
2022-12-29T10:58:08.583Z,21.40
2022-12-29T11:01:13.780Z,22.80
2022-12-29T11:04:41.917Z,24.80
2022-12-29T11:07:44.951Z,23.70
2022-12-29T11:10:48.270Z,22.67
2022-12-29T11:13:52.477Z,22.63
2022-12-29T11:17:06.026Z,23.73
2022-12-29T11:20:31.844Z,22.83
2022-12-29T11:23:40.043Z,22.52
2022-12-29T11:26:45.158Z,21.93
2022-12-29T11:29:48.174Z,23.30
2022-12-29T11:32:55.649Z,24.17
2022-12-29T11:36:28.149Z,22.92
2022-12-29T11:39:33.357Z,20.50
2022-12-29T11:42:41.162Z,21.97
2022-12-29T11:45:47.316Z,25.80
2022-12-29T11:48:51.220Z,22.50
2022-12-29T11:51:56.488Z,27.30
2022-12-29T11:54:59.438Z,20.50
2022-12-29T11:58:04.555Z,19.37
2022-12-29T12:01:37.685Z,20.40
2022-12-29T12:04:40.623Z,20.65
2022-12-29T12:07:47.459Z,22.27
2022-12-29T12:10:56.119Z,21.73
2022-12-29T12:14:19.836Z,23.80
2022-12-29T12:17:47.767Z,22.10
2022-12-29T12:20:57.772Z,23.67
2022-12-29T12:24:09.968Z,21.05
2022-12-29T12:27:18.869Z,22.77
2022-12-29T12:30:25.511Z,22.02
2022-12-29T12:33:43.202Z,22.73
2022-12-29T12:36:59.113Z,22.00
2022-12-29T12:40:29.956Z,23.05
2022-12-29T12:43:51.405Z,26.08
2022-12-29T12:47:08.307Z,36.58
2022-12-29T12:50:17.209Z,22.77
2022-12-29T12:54:01.276Z,21.50
2022-12-29T12:57:26.213Z,59.05
2022-12-29T13:00:29.539Z,23.12
2022-12-29T13:04:00.998Z,22.05
2022-12-29T13:07:39.051Z,21.77
2022-12-29T13:11:00.785Z,33.08
2022-12-29T13:14:38.148Z,25.25
2022-12-29T13:17:52.886Z,21.52
2022-12-29T13:21:05.037Z,21.65
2022-12-29T13:24:32.670Z,23.30
2022-12-29T13:27:46.059Z,23.58
2022-12-29T13:31:06.577Z,28.52
2022-12-29T13:34:27.715Z,22.75
2022-12-29T13:37:33.087Z,23.83
2022-12-29T13:40:41.618Z,24.63
2022-12-29T13:43:47.982Z,24.77
2022-12-29T13:46:51.056Z,24.17
2022-12-29T13:49:54.381Z,23.85
2022-12-29T13:53:07.888Z,26.57
2022-12-29T13:56:21.934Z,31.90
2022-12-29T13:59:43.859Z,36.75
2022-12-29T14:02:46.981Z,30.10
2022-12-29T14:06:07.252Z,28.83
2022-12-29T14:09:35.579Z,24.27
2022-12-29T14:12:43.567Z,27.60
2022-12-29T14:16:00.045Z,26.77
2022-12-29T14:19:18.758Z,23.15
2022-12-29T14:22:32.941Z,27.08
2022-12-29T14:25:56.611Z,22.67
2022-12-29T14:29:25.744Z,26.00
2022-12-29T14:32:28.489Z,28.62
2022-12-29T14:35:53.336Z,28.98
2022-12-29T14:38:56.253Z,26.33
2022-12-29T14:42:04.861Z,25.40
2022-12-29T14:45:24.058Z,26.47
2022-12-29T14:48:37.796Z,33.92
2022-12-29T14:51:40.834Z,33.03
2022-12-29T14:54:46.802Z,30.65
2022-12-29T14:57:52.073Z,29.53
2022-12-29T15:00:56.224Z,35.03
2022-12-29T15:04:02.461Z,37.47
2022-12-29T15:07:09.335Z,38.05
2022-12-29T15:10:16.921Z,37.85
2022-12-29T15:13:24.848Z,41.33
2022-12-29T15:16:30.966Z,38.17
2022-12-29T15:19:34.427Z,44.72
2022-12-29T15:22:38.921Z,39.67
2022-12-29T15:26:11.524Z,101.45
2022-12-29T15:29:40.509Z,45.60
2022-12-29T15:32:48.469Z,45.27
2022-12-29T15:35:52.942Z,39.30
2022-12-29T15:38:57.519Z,40.83
2022-12-29T15:42:22.048Z,38.95
2022-12-29T15:45:31.977Z,38.73
2022-12-29T15:48:34.947Z,38.23
2022-12-29T15:51:39.944Z,38.22
2022-12-29T15:54:43.833Z,38.17
2022-12-29T15:57:46.615Z,39.42
2022-12-29T16:00:58.883Z,39.93
2022-12-29T16:04:05.773Z,38.13
2022-12-29T16:07:26.111Z,41.85
2022-12-29T16:10:40.066Z,40.50
2022-12-29T16:13:42.947Z,35.75
2022-12-29T16:16:47.006Z,44.10
2022-12-29T16:19:56.114Z,45.77
2022-12-29T16:23:00.534Z,55.63
2022-12-29T16:26:05.309Z,57.50
2022-12-29T16:29:09.438Z,63.67
2022-12-29T16:32:32.469Z,62.80
2022-12-29T16:35:44.415Z,57.57
2022-12-29T16:38:47.758Z,50.38
2022-12-29T16:41:51.563Z,47.58
2022-12-29T16:45:10.863Z,47.75
2022-12-29T16:48:23.718Z,47.07
2022-12-29T16:51:36.032Z,44.17
2022-12-29T16:54:40.082Z,47.62
2022-12-29T16:57:44.417Z,49.53
2022-12-29T17:00:47.989Z,46.30
